Time;durP1;ratioP1;P1;durP2;ratioP2;P2;SDS_P1;SDS_P2;PMS_P1;PMS_P2;Temp;Humidity;BMP_temperature;BMP_pressure;BME280_temperature;BME280_humidity;BME280_pressure;Samples;Min_cycle;Max_cycle;Signal;HPM_P1;HPM_P2
2022/03/21 00:01:24;;;;;;;67.53;38.50;;;;;;;-145.18;100.00;46799.09;5069498;28;20040;-64
2022/03/21 00:03:50;;;;;;;64.20;38.33;;;;;;;-145.18;100.00;46795.19;5069832;28;20037;-63
2022/03/21 00:06:15;;;;;;;65.50;39.80;;;;;;;-145.18;100.00;46803.00;5069313;28;20037;-63
2022/03/21 00:08:43;;;;;;;65.50;37.73;;;;;;;-145.18;100.00;46789.31;5072702;28;20195;-63
2022/03/21 00:11:09;;;;;;;67.55;37.83;;;;;;;-145.18;100.00;46814.72;5073726;28;20374;-63
2022/03/21 00:13:35;;;;;;;67.10;38.60;;;;;;;-145.18;100.00;46779.56;5073718;28;20066;-64
2022/03/21 00:16:01;;;;;;;65.13;37.80;;;;;;;-145.18;100.00;46771.75;5071908;28;20163;-64
2022/03/21 00:18:27;;;;;;;71.65;39.33;;;;;;;-145.18;100.00;46744.38;5073900;28;20437;-64
2022/03/21 00:20:54;;;;;;;70.10;39.13;;;;;;;-145.18;100.00;46738.53;5072335;28;20056;-64
2022/03/21 00:23:22;;;;;;;66.32;37.83;;;;;;;-145.18;100.00;46750.25;5072290;28;20269;-63
2022/03/21 00:25:47;;;;;;;65.28;37.97;;;;;;;-145.18;100.00;46738.53;5073023;28;20021;-63
2022/03/21 00:28:12;;;;;;;65.00;37.47;;;;;;;-145.18;100.00;46758.06;5073227;28;20473;-63
2022/03/21 00:30:40;;;;;;;68.27;38.50;;;;;;;-145.18;100.00;46750.25;5073112;28;20037;-63
2022/03/21 00:33:06;;;;;;;69.57;36.83;;;;;;;-145.18;100.00;46752.19;5073121;28;20024;-63
2022/03/21 00:35:31;;;;;;;68.13;38.73;;;;;;;-145.18;100.00;46763.91;5073105;28;20078;-63
2022/03/21 00:37:58;;;;;;;69.50;39.37;;;;;;;-145.18;100.00;46773.69;5072773;28;20289;-64
2022/03/21 00:40:27;;;;;;;67.18;39.05;;;;;;;-145.18;100.00;46787.38;5073070;28;20037;-63
2022/03/21 00:42:53;;;;;;;62.13;35.97;;;;;;;-145.18;100.00;46769.78;5072927;28;20037;-63
2022/03/21 00:45:21;;;;;;;63.92;37.72;;;;;;;-145.18;100.00;46781.50;5072856;28;20059;-63
2022/03/21 00:47:48;;;;;;;67.95;39.15;;;;;;;-145.18;100.00;46789.31;5072951;28;20045;-63
2022/03/21 00:50:16;;;;;;;70.80;40.08;;;;;;;-145.18;100.00;46754.16;5072544;28;20033;-64
2022/03/21 00:52:46;;;;;;;67.65;38.90;;;;;;;-145.18;100.00;46713.13;5072988;28;20059;-64
2022/03/21 00:55:13;;;;;;;67.40;39.50;;;;;;;-145.18;100.00;46715.09;5072302;28;20074;-63
2022/03/21 00:57:45;;;;;;;74.38;40.28;;;;;;;-145.18;100.00;46720.94;5072557;28;20037;-63
2022/03/21 01:00:14;;;;;;;67.38;38.70;;;;;;;-145.18;100.00;46724.84;5072574;28;20052;-63
2022/03/21 01:02:40;;;;;;;65.38;38.72;;;;;;;-145.18;100.00;46722.91;5072556;28;20060;-63
2022/03/21 01:05:07;;;;;;;67.78;38.65;;;;;;;-145.18;100.00;46758.06;5072457;28;20041;-63
2022/03/21 01:07:33;;;;;;;67.60;39.10;;;;;;;-145.18;100.00;46761.97;5071365;28;20039;-63
2022/03/21 01:09:59;;;;;;;71.20;40.97;;;;;;;-145.18;100.00;46750.25;5072065;28;20036;-64
2022/03/21 01:12:25;;;;;;;74.60;40.40;;;;;;;-145.18;100.00;46765.88;5072872;28;20769;-64
2022/03/21 01:14:51;;;;;;;74.43;39.53;;;;;;;-145.18;100.00;46728.75;5072350;28;20071;-64
2022/03/21 01:17:16;;;;;;;73.37;40.30;;;;;;;-145.18;100.00;46732.66;5072394;28;20032;-63
2022/03/21 01:19:42;;;;;;;68.43;39.07;;;;;;;-145.18;100.00;46742.44;5071880;28;20063;-63
2022/03/21 01:22:07;;;;;;;75.03;41.87;;;;;;;-145.18;100.00;46738.53;5072211;28;20036;-64
2022/03/21 01:24:35;;;;;;;82.33;42.90;;;;;;;-145.18;100.00;46711.19;5052837;28;20039;-63
2022/03/21 01:27:04;;;;;;;77.70;42.65;;;;;;;-145.18;100.00;46707.28;5051694;28;20091;-63
2022/03/21 01:29:30;;;;;;;83.25;43.42;;;;;;;-145.18;100.00;46717.03;5055821;28;20222;-63
2022/03/21 01:31:55;;;;;;;78.10;42.50;;;;;;;-145.18;100.00;46722.91;5055144;28;20033;-63
2022/03/21 01:34:21;;;;;;;82.50;44.07;;;;;;;-145.18;100.00;46707.28;5052731;28;20508;-63
2022/03/21 01:36:46;;;;;;;76.47;42.93;;;;;;;-145.18;100.00;46693.59;5050756;28;20033;-64
2022/03/21 01:39:11;;;;;;;86.93;47.10;;;;;;;-145.18;100.00;46691.66;5052139;28;20037;-63
2022/03/21 01:41:37;;;;;;;81.17;45.50;;;;;;;-145.18;100.00;46681.88;5052244;28;20163;-64
2022/03/21 01:44:08;;;;;;;78.37;44.97;;;;;;;-145.18;100.00;46679.94;5052167;28;20025;-63
2022/03/21 01:46:35;;;;;;;80.65;44.75;;;;;;;-145.18;100.00;46674.06;5051880;28;20045;-64
2022/03/21 01:49:02;;;;;;;84.45;44.38;;;;;;;-145.18;100.00;46674.06;5051964;28;20512;-64
2022/03/21 01:51:28;;;;;;;82.07;45.95;;;;;;;-145.18;100.00;46674.06;5051810;28;20032;-64
2022/03/21 01:56:41;;;;;;;86.05;47.67;;;;;;;-145.18;100.00;46666.25;5052097;28;20102;-64
2022/03/21 01:59:11;;;;;;;86.03;44.85;;;;;;;-145.18;100.00;46674.06;5051978;28;20037;-64
2022/03/21 02:04:10;;;;;;;83.88;46.55;;;;;;;-145.18;100.00;46677.97;4740466;22;20050;-65
2022/03/21 02:06:36;;;;;;;86.50;48.73;;;;;;;-145.18;100.00;46676.03;4985058;28;20069;-65
2022/03/21 02:09:05;;;;;;;89.17;50.17;;;;;;;-145.18;100.00;46697.50;4991930;28;20105;-65
2022/03/21 02:11:30;;;;;;;94.03;50.13;;;;;;;-145.18;100.00;46689.69;4972007;28;20069;-65
2022/03/21 02:13:58;;;;;;;83.00;47.23;;;;;;;-145.18;100.00;46677.97;4972820;28;20035;-65
2022/03/21 02:16:25;;;;;;;84.07;48.40;;;;;;;-145.18;100.00;46679.94;4973002;28;20034;-65
2022/03/21 02:18:52;;;;;;;84.88;46.35;;;;;;;-145.18;100.00;46666.25;4972874;28;20038;-64
2022/03/21 02:21:36;;;;;;;86.35;47.60;;;;;;;-145.18;100.00;46677.97;4972849;28;20042;-65
2022/03/21 02:24:17;;;;;;;80.15;45.90;;;;;;;-145.18;100.00;46664.31;4972623;28;20026;-65
2022/03/21 02:26:45;;;;;;;84.28;46.78;;;;;;;-145.18;100.00;46670.16;4972594;28;20121;-65
2022/03/21 02:29:11;;;;;;;89.57;48.75;;;;;;;-145.18;100.00;46681.88;4972486;28;20515;-65
2022/03/21 02:31:37;;;;;;;85.72;48.55;;;;;;;-145.18;100.00;46683.84;4971913;28;20054;-65
2022/03/21 02:34:03;;;;;;;93.13;50.47;;;;;;;-145.18;100.00;46685.78;4972383;28;20505;-65
2022/03/21 02:36:31;;;;;;;83.93;47.43;;;;;;;-145.18;100.00;46677.97;4972671;28;20031;-65
2022/03/21 02:38:57;;;;;;;90.45;48.97;;;;;;;-145.18;100.00;46677.97;4972449;28;20607;-64
2022/03/21 02:41:22;;;;;;;88.57;49.38;;;;;;;-145.18;100.00;46672.13;4972243;28;20146;-65
2022/03/21 02:43:56;;;;;;;90.60;50.13;;;;;;;-145.18;100.00;46648.69;4972526;28;20527;-65
2022/03/21 02:46:22;;;;;;;91.85;51.15;;;;;;;-145.18;100.00;46662.34;4972160;28;20161;-65
2022/03/21 02:48:49;;;;;;;92.93;52.05;;;;;;;-145.18;100.00;46646.72;4972336;28;20035;-65
2022/03/21 02:51:16;;;;;;;104.53;55.35;;;;;;;-145.18;100.00;46656.50;4972217;28;20031;-65
2022/03/21 02:53:43;;;;;;;100.00;55.15;;;;;;;-145.18;100.00;46648.69;4972055;28;20070;-65
2022/03/21 02:56:09;;;;;;;103.68;55.88;;;;;;;-145.18;100.00;46648.69;4972281;28;20050;-65
2022/03/21 02:58:34;;;;;;;103.17;55.30;;;;;;;-145.18;100.00;46658.44;4972184;28;20150;-65
2022/03/21 03:01:11;;;;;;;106.47;56.53;;;;;;;-145.18;100.00;46636.94;4972269;28;20030;-65
2022/03/21 03:03:36;;;;;;;105.00;56.63;;;;;;;-145.18;100.00;46658.44;4971618;28;20158;-65
2022/03/21 03:06:02;;;;;;;102.13;55.23;;;;;;;-145.18;100.00;46652.59;4972190;28;20113;-65
2022/03/21 03:08:29;;;;;;;92.72;52.38;;;;;;;-145.18;100.00;46660.41;4971880;28;20058;-65
2022/03/21 03:10:54;;;;;;;93.95;51.08;;;;;;;-145.18;100.00;46656.50;4972316;28;20046;-65
2022/03/21 03:13:20;;;;;;;91.03;50.73;;;;;;;-145.18;100.00;46660.41;4971442;28;20565;-65
2022/03/21 03:15:47;;;;;;;93.67;51.63;;;;;;;-145.18;100.00;46648.69;4972496;28;20033;-65
2022/03/21 03:18:13;;;;;;;95.70;51.42;;;;;;;-145.18;100.00;46640.88;4971571;28;20042;-65
2022/03/21 03:20:48;;;;;;;93.37;52.60;;;;;;;-145.18;100.00;46642.81;4972291;28;20047;-65
2022/03/21 03:23:13;;;;;;;89.57;51.78;;;;;;;-145.18;100.00;46640.88;4971540;28;20022;-65
2022/03/21 03:25:39;;;;;;;96.37;52.00;;;;;;;-145.18;100.00;46640.88;4971961;28;20046;-65
2022/03/21 03:28:04;;;;;;;98.40;54.60;;;;;;;-145.18;100.00;46646.72;4971572;28;20031;-65
2022/03/21 03:30:30;;;;;;;99.80;54.83;;;;;;;-145.18;100.00;46648.69;4972100;28;20404;-65
2022/03/21 03:32:55;;;;;;;104.20;55.83;;;;;;;-145.18;100.00;46642.81;4971581;28;20030;-65
2022/03/21 03:35:21;;;;;;;98.37;54.10;;;;;;;-145.18;100.00;46636.94;4971773;28;20415;-65
2022/03/21 03:37:46;;;;;;;92.47;51.83;;;;;;;-145.18;100.00;46640.88;4971346;28;20041;-65
2022/03/21 03:40:12;;;;;;;96.40;51.17;;;;;;;-145.18;100.00;46642.81;4971829;28;20047;-65
2022/03/21 03:42:38;;;;;;;94.73;51.83;;;;;;;-145.18;100.00;46640.88;4971309;28;20093;-66
2022/03/21 03:45:04;;;;;;;77.40;46.30;;;;;;;-145.18;100.00;46644.78;4971825;28;20031;-64
2022/03/21 03:47:29;;;;;;;85.05;47.47;;;;;;;-145.18;100.00;46646.72;4971392;28;20103;-65
2022/03/21 03:49:55;;;;;;;80.30;47.10;;;;;;;-145.18;100.00;46640.88;4971737;28;20043;-65
2022/03/21 03:52:20;;;;;;;82.97;47.30;;;;;;;-145.18;100.00;46646.72;4971231;28;20050;-65
2022/03/21 03:54:45;;;;;;;84.03;46.80;;;;;;;-145.18;100.00;46642.81;4994932;28;20436;-64
2022/03/21 03:57:11;;;;;;;79.90;46.03;;;;;;;-145.18;100.00;46650.63;5010183;28;20041;-65
2022/03/21 03:59:37;;;;;;;85.90;47.77;;;;;;;-145.18;100.00;46652.59;4993400;28;20064;-64
2022/03/21 04:02:03;;;;;;;85.83;46.50;;;;;;;-145.18;100.00;46648.69;5010146;28;20037;-65
2022/03/21 04:04:28;;;;;;;87.53;47.03;;;;;;;-145.18;100.00;46648.69;5010365;28;20709;-65
2022/03/21 04:06:53;;;;;;;87.83;47.17;;;;;;;-145.18;100.00;46646.72;5010498;28;20034;-65
2022/03/21 04:09:19;;;;;;;80.57;46.13;;;;;;;-145.18;100.00;46650.63;5010172;28;20026;-65
2022/03/21 04:11:44;;;;;;;83.87;46.33;;;;;;;-145.18;100.00;46656.50;5010592;28;20475;-65
2022/03/21 04:14:09;;;;;;;79.43;44.90;;;;;;;-145.18;100.00;46658.44;5010035;28;20066;-65
2022/03/21 04:16:36;;;;;;;82.37;47.47;;;;;;;-145.18;100.00;46635.00;5007110;28;20485;-65
2022/03/21 04:19:02;;;;;;;79.95;45.88;;;;;;;-145.18;100.00;46633.06;4990412;28;20401;-65
2022/03/21 04:21:27;;;;;;;83.10;48.20;;;;;;;-145.18;100.00;46627.19;4991104;28;20117;-65
2022/03/21 04:23:53;;;;;;;84.20;45.97;;;;;;;-145.18;100.00;46617.41;4990371;28;20026;-65
2022/03/21 04:26:19;;;;;;;87.23;48.10;;;;;;;-145.18;100.00;46631.09;4990508;28;20030;-65
2022/03/21 04:28:45;;;;;;;85.78;47.15;;;;;;;-145.18;100.00;46633.06;4990335;28;20737;-65
2022/03/21 04:31:10;;;;;;;81.07;44.37;;;;;;;-145.18;100.00;46631.09;4973313;28;20038;-65
2022/03/21 04:33:36;;;;;;;83.37;45.27;;;;;;;-145.18;100.00;46656.50;4990262;28;20456;-64
2022/03/21 04:36:01;;;;;;;87.13;49.17;;;;;;;-145.18;100.00;46648.69;4990731;28;20042;-64
2022/03/21 04:38:26;;;;;;;90.13;47.77;;;;;;;-145.18;100.00;46631.09;4990064;28;20156;-64
2022/03/21 04:40:52;;;;;;;85.00;46.47;;;;;;;-145.18;100.00;46631.09;4990462;28;20512;-64
2022/03/21 04:43:19;;;;;;;79.97;46.43;;;;;;;-145.18;100.00;46629.13;4990082;28;20030;-64
2022/03/21 04:45:46;;;;;;;82.90;47.65;;;;;;;-145.18;100.00;46615.47;4990680;28;20034;-64
2022/03/21 04:48:12;;;;;;;87.18;46.08;;;;;;;-145.18;100.00;46638.91;4989942;28;20030;-64
2022/03/21 04:50:38;;;;;;;85.03;46.05;;;;;;;-145.18;100.00;46640.88;4990376;28;20050;-64
2022/03/21 04:53:05;;;;;;;91.35;48.10;;;;;;;-145.18;100.00;46636.94;4989914;28;20039;-65
2022/03/21 04:55:32;;;;;;;87.22;48.50;;;;;;;-145.18;100.00;46640.88;4993738;28;20495;-64
2022/03/21 04:57:58;;;;;;;81.57;48.03;;;;;;;-145.18;100.00;46633.06;4993639;28;20129;-64
2022/03/21 05:00:24;;;;;;;85.75;48.22;;;;;;;-145.18;100.00;46629.13;4993976;28;20116;-64
2022/03/21 05:02:49;;;;;;;84.70;48.17;;;;;;;-145.18;100.00;46631.09;4993341;28;20082;-64
2022/03/21 05:05:14;;;;;;;90.43;48.53;;;;;;;-145.18;100.00;46627.19;4993545;28;20042;-64
2022/03/21 05:07:42;;;;;;;89.20;48.93;;;;;;;-145.18;100.00;46625.22;4993461;28;20034;-64
2022/03/21 05:10:09;;;;;;;89.40;51.90;;;;;;;-145.18;100.00;46621.31;4993597;28;20056;-64
2022/03/21 05:12:35;;;;;;;87.38;47.85;;;;;;;-145.18;100.00;46627.19;4993464;28;20398;-64
2022/03/21 05:15:00;;;;;;;85.13;47.73;;;;;;;-145.18;100.00;46627.19;4993010;28;20030;-64
2022/03/21 05:17:29;;;;;;;90.10;49.23;;;;;;;-145.18;100.00;46623.28;4992340;28;20026;-64
2022/03/21 05:19:55;;;;;;;91.63;47.55;;;;;;;-145.18;100.00;46580.31;4992444;28;20443;-64
2022/03/21 05:22:20;;;;;;;86.53;48.87;;;;;;;-145.18;100.00;46627.19;4988757;28;20034;-64
2022/03/21 05:35:55;;;;;;;85.90;46.30;;;;;;;-145.18;100.00;46633.06;4974260;28;20045;-64
2022/03/21 05:38:25;;;;;;;87.50;47.05;;;;;;;-145.18;100.00;46625.22;4973310;28;20039;-64
2022/03/21 05:40:51;;;;;;;81.32;46.20;;;;;;;-145.18;100.00;46623.28;4974533;28;20050;-64
2022/03/21 05:43:16;;;;;;;89.22;49.10;;;;;;;-145.18;100.00;46578.34;4973225;28;20043;-64
2022/03/21 05:45:41;;;;;;;91.73;47.90;;;;;;;-145.18;100.00;46578.34;4973606;28;20058;-64
2022/03/21 05:50:51;;;;;;;98.03;51.95;;;;;;;-145.18;100.00;46574.44;4977954;28;20117;-64
2022/03/21 05:53:18;;;;;;;86.33;47.33;;;;;;;-145.18;100.00;46574.44;4992354;28;20117;-64
2022/03/21 05:55:45;;;;;;;89.32;49.63;;;;;;;-145.18;100.00;46570.53;4992823;28;20121;-64
2022/03/21 05:58:11;;;;;;;92.45;47.20;;;;;;;-145.18;100.00;46570.53;4992221;28;20049;-64
2022/03/21 06:00:37;;;;;;;92.60;48.50;;;;;;;-145.18;100.00;46572.50;4993186;28;20113;-64
2022/03/21 06:03:03;;;;;;;93.43;50.13;;;;;;;-145.18;100.00;46568.59;4991815;28;20169;-64
2022/03/21 06:05:29;;;;;;;92.30;48.63;;;;;;;-145.18;100.00;46566.63;4992085;28;20122;-64
2022/03/21 06:07:55;;;;;;;94.03;48.30;;;;;;;-145.18;100.00;46570.53;4991642;28;20137;-64
2022/03/21 06:10:20;;;;;;;88.67;48.77;;;;;;;-145.18;100.00;46564.69;4991625;28;20105;-64
2022/03/21 06:12:46;;;;;;;96.20;52.27;;;;;;;-145.18;100.00;46566.63;4991263;28;20027;-64
2022/03/21 06:15:11;;;;;;;99.30;51.20;;;;;;;-145.18;100.00;46560.78;4985954;28;20031;-64
2022/03/21 06:17:39;;;;;;;93.97;50.23;;;;;;;-145.18;100.00;46558.81;4990257;28;20038;-64
2022/03/21 06:20:09;;;;;;;91.43;51.30;;;;;;;-145.18;100.00;46562.72;4990590;28;20030;-64
2022/03/21 06:22:35;;;;;;;104.18;50.20;;;;;;;-145.18;100.00;46556.88;4992210;28;20515;-64
2022/03/21 06:25:01;;;;;;;92.27;49.23;;;;;;;-145.18;100.00;46558.81;4991076;28;20030;-64
2022/03/21 06:27:26;;;;;;;98.60;51.03;;;;;;;-145.18;100.00;46552.97;4991828;28;20418;-62
2022/03/21 06:29:52;;;;;;;95.67;50.70;;;;;;;-145.18;100.00;46556.88;4991693;28;20034;-64
2022/03/21 06:32:17;;;;;;;100.67;52.80;;;;;;;-145.18;100.00;46560.78;4991883;28;20046;-64
2022/03/21 06:34:43;;;;;;;95.23;49.87;;;;;;;-145.18;100.00;46556.88;4991598;28;20470;-64
2022/03/21 06:37:09;;;;;;;100.03;51.40;;;;;;;-145.18;100.00;46566.63;4991974;28;20113;-64
2022/03/21 06:39:35;;;;;;;102.95;53.03;;;;;;;-145.18;100.00;46562.72;4991511;28;20113;-64
2022/03/21 06:42:00;;;;;;;107.03;52.77;;;;;;;-145.18;100.00;46566.63;4991975;28;20552;-64
2022/03/21 06:44:26;;;;;;;104.97;52.43;;;;;;;-145.18;100.00;46568.59;4991245;28;20116;-64
2022/03/21 06:46:51;;;;;;;99.10;53.33;;;;;;;-145.18;100.00;46572.50;4991756;28;20052;-64
2022/03/21 06:49:17;;;;;;;101.57;52.57;;;;;;;-145.18;100.00;46562.72;4991328;28;20085;-64
2022/03/21 06:51:42;;;;;;;99.07;52.07;;;;;;;-145.18;100.00;46572.50;4991771;28;20039;-64
2022/03/21 06:54:07;;;;;;;88.03;49.23;;;;;;;-145.18;100.00;46568.59;4991290;28;20042;-64
2022/03/21 06:56:33;;;;;;;103.77;51.37;;;;;;;-145.18;100.00;46574.44;4990967;28;20039;-64
2022/03/21 06:58:58;;;;;;;90.23;48.30;;;;;;;-145.18;100.00;46568.59;4990981;28;20487;-64
2022/03/21 07:01:25;;;;;;;87.00;49.37;;;;;;;-145.18;100.00;46574.44;4997244;28;20034;-64
2022/03/21 07:03:50;;;;;;;92.65;50.85;;;;;;;-145.18;100.00;46566.63;4990484;28;20038;-64
2022/03/21 07:06:17;;;;;;;94.40;50.90;;;;;;;-145.18;100.00;46566.63;4970007;28;20096;-64
2022/03/21 07:08:42;;;;;;;95.75;52.00;;;;;;;-145.18;100.00;46568.59;4991027;28;20545;-64
2022/03/21 07:11:12;;;;;;;97.50;52.47;;;;;;;-145.18;100.00;46562.72;4990436;28;20034;-64
2022/03/21 07:13:38;;;;;;;102.50;53.88;;;;;;;-145.18;100.00;46566.63;4990922;28;20149;-64
2022/03/21 07:16:04;;;;;;;96.65;51.75;;;;;;;-145.18;100.00;46564.69;4990140;28;20034;-64
2022/03/21 07:18:29;;;;;;;92.80;50.70;;;;;;;-145.18;100.00;46566.63;4972658;28;20117;-64
2022/03/21 07:20:55;;;;;;;95.43;51.67;;;;;;;-145.18;100.00;46568.59;4991013;28;20061;-64
2022/03/21 07:23:20;;;;;;;91.67;48.90;;;;;;;-145.18;100.00;46568.59;4990418;28;20034;-64
2022/03/21 07:25:47;;;;;;;92.80;52.37;;;;;;;-145.18;100.00;46564.69;4991176;28;20049;-64
2022/03/21 07:28:12;;;;;;;90.95;50.63;;;;;;;-145.18;100.00;46570.53;4990697;28;20447;-64
2022/03/21 07:30:38;;;;;;;88.70;50.83;;;;;;;-145.18;100.00;46558.81;4991205;28;20041;-64
2022/03/21 07:33:03;;;;;;;106.37;51.47;;;;;;;-145.18;100.00;46566.63;4990821;28;20035;-64
2022/03/21 07:35:29;;;;;;;84.50;48.13;;;;;;;-145.18;100.00;46558.81;4972741;28;20034;-64
2022/03/21 07:37:56;;;;;;;90.50;49.73;;;;;;;-145.18;100.00;46566.63;4990928;28;20540;-64
2022/03/21 07:40:22;;;;;;;87.70;49.70;;;;;;;-145.18;100.00;46566.63;4990627;28;20049;-64
2022/03/21 07:42:48;;;;;;;95.60;51.97;;;;;;;-145.18;100.00;46566.63;4991128;28;20499;-64
2022/03/21 07:47:59;;;;;;;85.63;45.60;;;;;;;-145.18;100.00;46566.63;4989359;28;20046;-64
2022/03/21 07:50:25;;;;;;;76.70;45.27;;;;;;;-145.18;100.00;46566.63;4990680;28;20034;-64
2022/03/21 07:52:52;;;;;;;71.83;43.20;;;;;;;-145.18;100.00;46564.69;4990762;28;20264;-64
2022/03/21 07:55:18;;;;;;;77.17;44.10;;;;;;;-145.18;100.00;46566.63;4990340;28;20728;-64
2022/03/21 07:57:43;;;;;;;78.87;43.93;;;;;;;-145.18;100.00;46582.25;4990475;28;20279;-64
2022/03/21 08:00:09;;;;;;;67.30;40.83;;;;;;;-145.18;100.00;46576.41;4990039;28;20157;-64
2022/03/21 08:02:36;;;;;;;74.17;41.97;;;;;;;-145.18;100.00;46580.31;4990464;28;20046;-64
2022/03/21 08:05:04;;;;;;;68.47;40.33;;;;;;;-145.18;100.00;46588.13;4989889;28;20277;-64
2022/03/21 08:07:29;;;;;;;64.70;39.60;;;;;;;-145.18;100.00;46586.16;4990264;28;20291;-65
2022/03/21 08:09:55;;;;;;;63.73;38.27;;;;;;;-145.18;100.00;46590.06;4989358;28;20276;-64
2022/03/21 08:12:20;;;;;;;66.30;38.83;;;;;;;-145.18;100.00;46593.97;4990328;28;20113;-64
2022/03/21 08:14:47;;;;;;;66.33;40.03;;;;;;;-145.18;100.00;46611.56;4990265;28;20041;-65
2022/03/21 08:17:13;;;;;;;65.20;37.47;;;;;;;-145.18;100.00;46597.88;4990367;28;20053;-64
2022/03/21 08:19:38;;;;;;;61.27;36.20;;;;;;;-145.18;100.00;46607.66;4989251;28;20275;-64
2022/03/21 08:22:04;;;;;;;52.10;33.77;;;;;;;-145.18;100.00;46609.59;4990203;28;20045;-64
2022/03/21 08:24:39;;;;;;;58.97;35.10;;;;;;;-145.18;100.00;46621.31;4989863;28;20034;-64
2022/03/21 08:27:07;;;;;;;54.38;34.67;;;;;;;-145.18;100.00;46617.41;4990455;28;20031;-65
2022/03/21 08:29:33;;;;;;;57.03;32.67;;;;;;;-145.18;100.00;46627.19;4991899;28;20081;-65
2022/03/21 08:31:59;;;;;;;53.00;32.93;;;;;;;-145.18;100.00;46652.59;4976730;28;20268;-65
2022/03/21 08:34:24;;;;;;;55.43;31.27;;;;;;;-145.18;100.00;46664.31;4993420;28;20504;-64
2022/03/21 08:36:50;;;;;;;52.13;31.27;;;;;;;-145.18;100.00;46672.13;4993333;28;20050;-64
2022/03/21 08:39:16;;;;;;;55.70;32.10;;;;;;;-145.18;100.00;46662.34;4993691;28;20069;-64
2022/03/21 08:41:41;;;;;;;59.53;32.37;;;;;;;-145.18;100.00;46654.53;4993797;28;20039;-64
2022/03/21 08:44:07;;;;;;;55.07;32.23;;;;;;;-145.18;100.00;46670.16;4993642;28;20046;-64
2022/03/21 08:46:33;;;;;;;44.77;29.07;;;;;;;-145.18;100.00;46703.38;4992926;28;20038;-64
2022/03/21 08:51:43;;;;;;;45.23;29.17;;;;;;;-145.18;100.00;46687.75;4994419;28;20561;-64
2022/03/21 08:54:09;;;;;;;51.17;31.00;;;;;;;-145.18;100.00;46674.06;4993570;28;20753;-64
2022/03/21 08:56:35;;;;;;;48.10;29.90;;;;;;;-145.18;100.00;46689.69;4976215;28;20684;-64
2022/03/21 08:59:01;;;;;;;51.87;28.87;;;;;;;-145.18;100.00;46691.66;4993257;28;20271;-64
2022/03/21 09:01:27;;;;;;;51.50;29.97;;;;;;;-145.18;100.00;46693.59;4993612;28;20035;-64
2022/03/21 09:03:53;;;;;;;43.87;28.23;;;;;;;-145.18;100.00;46689.69;4993174;28;20050;-64
2022/03/21 09:06:20;;;;;;;50.00;27.27;;;;;;;-145.18;100.00;46679.94;4976158;28;20299;-65
2022/03/21 09:08:47;;;;;;;41.87;24.43;;;;;;;-145.18;100.00;46707.28;4993285;28;20279;-65
2022/03/21 09:11:13;;;;;;;42.93;24.27;;;;;;;-145.18;100.00;46740.47;4993407;28;20315;-65
2022/03/21 09:13:39;;;;;;;39.07;21.27;;;;;;;-145.18;100.00;46808.84;4992798;28;20272;-65
2022/03/21 09:16:05;;;;;;;40.13;24.17;;;;;;;-145.18;100.00;46816.66;4993587;28;20275;-64
2022/03/21 09:18:31;;;;;;;34.37;20.47;;;;;;;-145.18;100.00;47394.91;4992790;28;20042;-65
2022/03/21 09:20:57;;;;;;;34.33;18.37;;;;;;;-145.18;100.00;47375.38;4993109;28;20116;-64
2022/03/21 09:23:22;;;;;;;34.87;19.13;;;;;;;-145.18;100.00;47355.84;4992697;28;20030;-65
2022/03/21 09:25:47;;;;;;;35.10;19.47;;;;;;;-145.18;100.00;47361.72;4976225;28;20113;-64
2022/03/21 09:28:13;;;;;;;29.73;18.77;;;;;;;-145.18;100.00;47334.34;4992898;28;20046;-65
2022/03/21 09:30:39;;;;;;;36.57;19.60;;;;;;;-145.18;100.00;47326.53;4993137;28;20551;-65
2022/03/21 09:33:05;;;;;;;33.67;20.07;;;;;;;-145.18;100.00;47332.41;4992666;28;20026;-65
2022/03/21 09:35:30;;;;;;;35.13;18.13;;;;;;;-145.18;100.00;47308.97;4992346;28;20272;-65
2022/03/21 09:37:56;;;;;;;32.80;19.10;;;;;;;-145.18;100.00;47301.16;4975241;28;20097;-65
2022/03/21 09:40:22;;;;;;;27.80;18.20;;;;;;;-145.18;100.00;47295.28;4992334;28;20160;-65
2022/03/21 09:42:48;;;;;;;30.40;18.10;;;;;;;-145.18;100.00;47289.41;4993100;28;20052;-65
2022/03/21 09:45:14;;;;;;;30.27;18.13;;;;;;;-145.18;100.00;47287.47;4992355;28;20748;-65
2022/03/21 09:50:34;;;;;;;29.27;18.17;;;;;;;-145.18;100.00;47262.06;4992291;28;20332;-65
2022/03/21 09:53:00;;;;;;;28.97;16.63;;;;;;;-145.18;100.00;47277.69;4975141;28;20672;-65
2022/03/21 09:55:25;;;;;;;28.87;17.63;;;;;;;-145.18;100.00;47256.22;4992090;28;20756;-65
2022/03/21 09:57:51;;;;;;;32.87;18.90;;;;;;;-145.18;100.00;47265.97;4975479;28;20314;-65
2022/03/21 10:00:16;;;;;;;35.47;17.67;;;;;;;-145.18;100.00;47250.34;4992146;28;20077;-65
2022/03/21 10:02:42;;;;;;;31.00;18.17;;;;;;;-145.18;100.00;47248.41;4991689;28;20487;-66
2022/03/21 10:05:33;;;;;;;31.70;17.73;;;;;;;-145.18;100.00;47242.53;4991846;28;20050;-65
2022/03/21 10:08:24;;;;;;;28.90;18.17;;;;;;;-145.18;100.00;47213.22;4991660;28;20337;-65
2022/03/21 10:11:01;;;;;;;26.33;16.70;;;;;;;-145.18;100.00;47217.13;4992463;28;20288;-65
2022/03/21 10:13:34;;;;;;;27.50;17.17;;;;;;;-145.18;100.00;47232.75;4991292;28;20871;-65
2022/03/21 10:16:13;;;;;;;32.87;18.87;;;;;;;-145.18;100.00;47226.91;4973092;28;20283;-65
2022/03/21 10:18:54;;;;;;;29.07;17.23;;;;;;;-145.18;100.00;47226.91;4990056;28;20795;-65
2022/03/21 10:21:25;;;;;;;28.13;16.23;;;;;;;-145.18;100.00;47219.09;4992046;28;20027;-65
2022/03/21 10:24:08;;;;;;;28.57;15.97;;;;;;;-145.18;100.00;47205.41;4991760;28;20687;-65
2022/03/21 10:26:36;;;;;;;27.83;16.33;;;;;;;-145.18;100.00;47219.09;4991880;28;20040;-65
2022/03/21 10:29:10;;;;;;;28.37;17.03;;;;;;;-145.18;100.00;47205.41;4991947;28;20045;-65
2022/03/21 10:31:45;;;;;;;36.87;16.67;;;;;;;-145.18;100.00;47221.03;4991806;28;20110;-64
2022/03/21 10:34:16;;;;;;;25.02;16.15;;;;;;;-145.18;100.00;47195.66;4991611;28;20849;-65
2022/03/21 10:36:59;;;;;;;25.77;14.87;;;;;;;-145.18;100.00;47201.50;4991470;28;20182;-65
2022/03/21 10:39:26;;;;;;;28.40;16.47;;;;;;;-145.18;100.00;47201.50;4991369;28;20045;-67
2022/03/21 10:42:00;;;;;;;29.40;16.10;;;;;;;-145.18;100.00;47189.78;4991988;28;20038;-67
2022/03/21 10:44:26;;;;;;;24.70;14.87;;;;;;;-145.18;100.00;47187.84;4974081;28;20049;-65
2022/03/21 10:46:53;;;;;;;28.87;17.10;;;;;;;-145.18;100.00;47180.03;4991789;28;20038;-66
2022/03/21 10:49:38;;;;;;;24.30;15.43;;;;;;;-145.18;100.00;47183.94;4991330;28;20054;-66
2022/03/21 10:52:05;;;;;;;27.30;15.47;;;;;;;-145.18;100.00;47172.19;4990724;28;20042;-65
2022/03/21 10:54:50;;;;;;;35.00;16.00;;;;;;;-145.18;100.00;47181.97;4991325;28;20036;-65
2022/03/21 10:57:38;;;;;;;23.50;15.13;;;;;;;-145.18;100.00;47166.34;4991512;28;20113;-65
2022/03/21 11:00:17;;;;;;;27.63;17.03;;;;;;;-145.18;100.00;47174.16;4991267;28;20081;-66
2022/03/21 11:03:09;;;;;;;29.33;16.00;;;;;;;-145.18;100.00;47162.44;4991576;28;20246;-66
2022/03/21 11:05:39;;;;;;;24.47;14.33;;;;;;;-145.18;100.00;47166.34;4990478;28;20069;-65
2022/03/21 11:08:06;;;;;;;23.63;14.50;;;;;;;-145.18;100.00;47154.63;4991593;28;20035;-65
2022/03/21 11:10:32;;;;;;;27.57;14.53;;;;;;;-145.18;100.00;47150.72;4990749;28;20114;-66
2022/03/21 11:13:01;;;;;;;25.20;15.53;;;;;;;-145.18;100.00;47164.38;4991574;28;20137;-65
2022/03/21 11:15:27;;;;;;;29.50;15.77;;;;;;;-145.18;100.00;47140.94;4990535;28;20031;-65
2022/03/21 11:17:53;;;;;;;30.47;15.67;;;;;;;-145.18;100.00;47135.09;4991100;28;20526;-65
2022/03/21 11:20:18;;;;;;;24.90;14.77;;;;;;;-145.18;100.00;47144.84;4990892;28;20043;-65
2022/03/21 11:22:44;;;;;;;29.97;15.73;;;;;;;-145.18;100.00;47148.75;4991247;28;20044;-65